Hauptseite
METAR-TAF:

METAR-TAF

Flughäfen :

Altenburg, Deutschland

Leipzig-Altenburg Airport

Breite: 50-58N, Länge: 012-30E, Höhe: 195 m

Beobachtung

Neuester Wetterbericht von vor 2 Stunden und 9 Minuten, um 16:50 UTC
Wind 10 kt aus Südwest
Temperatur 8°C
Luftfeuchtigkeit 100%
Luftdruck 1010 hPa
Sichtweite 10 km oder mehr
Durchbrochene Bewölkung in der Höhe von 2900 ft
Leichtregen

METAR: EDAC 211650Z 22010KT 9999 -RA BKN029 08/08 Q1010

Zeit: 19:59 (18:59 UTC)

Prognose

Neuester Wetterbericht von vor 1 Stunde und 59 Minuten, um 17:00 UTC
Gültige Prognose vom 21 um 18 UTC bis 22 um 03 UTC
Wind 10 kt aus Südwest
Sichtweite 10 km oder mehr
Durchbrochene Bewölkung in der Höhe von 2500 ft

TAF: EDAC 211700Z 2118/2203 22010KT 9999 BKN025

Wetterbeobachtungen und Prognosen von mehr als 4000 Flughäfen (METAR und TAF Bericht).

Die verfügbaren Stationen werden durch gelbe und rote Markierungen auf der Karte dargestellt.

Führen Sie die Maus auf sie, um den Namen der Station zu sehen.

Darauf klicken, um die Beobachtung von Wetterbeobachtungen und Prognosen zu sehen.

Um die Karte zu ändern : klicken Sie auf den grünen Tasten mit einem schwarzen Kreuz Zum Vergrößern, auf den grünen Button mit einem Gedankenstrich zu verkleinern, oder auf die grünen Pfeile für benachbarte Karten.


METAR-TAF: